Time;durP1;ratioP1;P1;durP2;ratioP2;P2;SDS_P1;SDS_P2;PMS_P1;PMS_P2;Temp;Humidity;BMP_temperature;BMP_pressure;BME280_temperature;BME280_humidity;BME280_pressure;Samples;Min_cycle;Max_cycle;Signal;HPM_P1;HPM_P2
2023/09/18 00:01:52;;;;;;;4.70;2.50;;;;;;;-141.50;100.00;63355.56;5026965;28;20045;-78
2023/09/18 00:04:18;;;;;;;3.05;2.20;;;;;;;-141.50;100.00;63355.56;5029232;28;20049;-78
2023/09/18 00:06:45;;;;;;;4.63;2.42;;;;;;;-141.50;100.00;63355.56;5030031;28;20038;-78
2023/09/18 00:09:13;;;;;;;4.88;2.45;;;;;;;-141.50;100.00;63355.56;5040541;28;20474;-78
2023/09/18 00:11:40;;;;;;;3.08;2.17;;;;;;;-141.50;100.00;63355.56;5026835;28;20076;-78
2023/09/18 00:14:09;;;;;;;4.40;2.20;;;;;;;-141.50;100.00;63355.56;5028076;28;20049;-79
2023/09/18 00:16:36;;;;;;;5.22;2.40;;;;;;;-141.50;100.00;63355.56;5031285;28;20056;-78
2023/09/18 00:19:23;;;;;;;4.57;2.50;;;;;;;-141.50;100.00;63355.56;5028686;28;20049;-78
2023/09/18 00:21:54;;;;;;;5.07;2.60;;;;;;;-141.50;100.00;63355.56;5015181;28;20052;-78
2023/09/18 00:24:22;;;;;;;3.15;2.40;;;;;;;-141.50;100.00;63355.56;5030976;28;20048;-78
2023/09/18 00:26:48;;;;;;;3.05;2.28;;;;;;;-141.50;100.00;63355.56;5019757;28;20455;-78
2023/09/18 00:29:15;;;;;;;8.57;2.53;;;;;;;-141.50;100.00;63355.56;5019902;28;20061;-78
2023/09/18 00:31:42;;;;;;;10.82;2.60;;;;;;;-141.50;100.00;63355.56;5013744;28;20073;-78
2023/09/18 00:34:09;;;;;;;4.65;2.55;;;;;;;-141.50;100.00;63355.56;5025662;28;20127;-78
2023/09/18 00:36:36;;;;;;;4.75;2.78;;;;;;;-141.50;100.00;63355.56;5045870;28;20057;-78
2023/09/18 00:39:05;;;;;;;5.30;2.60;;;;;;;-141.50;100.00;63355.56;5011724;28;20232;-78
2023/09/18 00:41:33;;;;;;;4.43;2.78;;;;;;;-141.50;100.00;63355.56;5027492;28;20041;-78
2023/09/18 00:43:59;;;;;;;5.07;2.72;;;;;;;-141.50;100.00;63355.56;5028522;28;20408;-78
2023/09/18 00:46:29;;;;;;;3.60;2.22;;;;;;;-141.50;100.00;63355.56;5035047;28;20038;-78
2023/09/18 00:48:56;;;;;;;3.30;2.30;;;;;;;-141.50;100.00;63355.56;5019911;28;20057;-77
2023/09/18 00:51:24;;;;;;;3.60;2.15;;;;;;;-141.50;100.00;63355.56;5031982;28;20049;-78
2023/09/18 00:53:51;;;;;;;2.92;2.38;;;;;;;-141.50;100.00;63355.56;5035585;28;20056;-78
2023/09/18 00:56:20;;;;;;;3.95;2.33;;;;;;;-141.50;100.00;63355.56;5026351;28;20341;-76
2023/09/18 00:58:50;;;;;;;3.83;2.45;;;;;;;-141.50;100.00;63355.56;5018031;28;20057;-78
2023/09/18 01:01:22;;;;;;;4.93;2.42;;;;;;;-141.50;100.00;63355.56;5033607;28;20088;-78
2023/09/18 01:03:51;;;;;;;3.45;2.30;;;;;;;-141.50;100.00;63355.56;5029453;28;20068;-78
2023/09/18 01:06:20;;;;;;;3.67;2.40;;;;;;;-141.50;100.00;63355.56;5029144;28;20126;-78
2023/09/18 01:08:50;;;;;;;4.20;2.67;;;;;;;-141.50;100.00;63355.56;5038846;28;20038;-78
2023/09/18 01:11:59;;;;;;;5.18;2.95;;;;;;;-141.50;100.00;63355.56;5000791;28;20203;-78
2023/09/18 01:14:33;;;;;;;4.32;2.60;;;;;;;-141.50;100.00;63355.56;4974374;28;20564;-78
2023/09/18 01:17:05;;;;;;;3.90;2.60;;;;;;;-141.50;100.00;63355.56;4991174;28;21160;-78
2023/09/18 01:19:42;;;;;;;3.33;2.47;;;;;;;-141.50;100.00;63355.56;5013046;28;20099;-78
2023/09/18 01:22:10;;;;;;;3.65;2.30;;;;;;;-141.50;100.00;63355.56;5042481;28;20984;-78
2023/09/18 01:24:39;;;;;;;4.38;2.70;;;;;;;-141.50;100.00;63355.56;5028248;28;20041;-78
2023/09/18 01:27:09;;;;;;;4.05;2.75;;;;;;;-141.50;100.00;63355.56;5027020;28;20058;-78
2023/09/18 01:29:36;;;;;;;4.63;2.47;;;;;;;-141.50;100.00;63355.56;5009734;28;20150;-78
2023/09/18 01:32:03;;;;;;;3.13;2.28;;;;;;;-141.50;100.00;63355.56;5042946;28;20427;-78
2023/09/18 01:34:36;;;;;;;3.92;2.42;;;;;;;-141.50;100.00;63355.56;5020995;28;20048;-78
2023/09/18 01:37:05;;;;;;;4.60;2.53;;;;;;;-141.50;100.00;63355.56;5036221;28;21126;-77
2023/09/18 01:39:34;;;;;;;4.65;2.45;;;;;;;-141.50;100.00;63355.56;5039265;28;20096;-77
2023/09/18 01:42:05;;;;;;;7.00;2.58;;;;;;;-141.50;100.00;63355.56;5028063;28;20053;-77
2023/09/18 01:44:33;;;;;;;6.57;2.38;;;;;;;-141.50;100.00;63355.56;5030035;28;20061;-77
2023/09/18 01:47:03;;;;;;;3.33;2.33;;;;;;;-141.50;100.00;63355.56;5028787;28;20041;-78
2023/09/18 01:49:38;;;;;;;3.45;2.47;;;;;;;-141.50;100.00;63355.56;5022348;28;20136;-77
2023/09/18 01:52:08;;;;;;;3.85;2.53;;;;;;;-141.50;100.00;63355.56;5040680;28;20144;-77
2023/09/18 01:54:36;;;;;;;11.38;2.75;;;;;;;-141.50;100.00;63355.56;5032029;28;20543;-77
2023/09/18 01:57:03;;;;;;;4.93;2.50;;;;;;;-141.50;100.00;63355.56;5026284;28;20071;-78
2023/09/18 01:59:30;;;;;;;4.90;2.40;;;;;;;-141.50;100.00;63355.56;5008858;28;20053;-78
2023/09/18 02:01:58;;;;;;;3.30;2.03;;;;;;;-141.50;100.00;63355.56;5018853;28;20048;-78
2023/09/18 02:04:25;;;;;;;3.78;2.35;;;;;;;-141.50;100.00;63355.56;5011753;28;20050;-78
2023/09/18 02:07:13;;;;;;;3.78;2.10;;;;;;;-141.50;100.00;63355.56;5020662;28;20045;-78
2023/09/18 02:09:40;;;;;;;3.75;2.20;;;;;;;-141.50;100.00;63355.56;5035143;28;20042;-78
2023/09/18 02:12:07;;;;;;;3.97;2.20;;;;;;;-141.50;100.00;63355.56;5025461;28;20132;-78
2023/09/18 02:14:34;;;;;;;4.28;2.38;;;;;;;-141.50;100.00;63355.56;5024609;28;20072;-78
2023/09/18 02:17:01;;;;;;;2.80;2.10;;;;;;;-141.50;100.00;63355.56;5018888;28;20048;-77
2023/09/18 02:19:28;;;;;;;4.55;2.50;;;;;;;-141.50;100.00;63355.56;5036003;28;20073;-77
2023/09/18 02:21:57;;;;;;;4.53;2.22;;;;;;;-141.50;100.00;63355.56;5000130;28;20045;-77
2023/09/18 02:24:24;;;;;;;4.70;2.40;;;;;;;-141.50;100.00;63355.56;5021418;28;20048;-78
2023/09/18 02:26:53;;;;;;;6.53;2.60;;;;;;;-141.50;100.00;63355.56;5025291;28;20164;-78
2023/09/18 02:29:20;;;;;;;3.47;2.22;;;;;;;-141.50;100.00;63355.56;5015858;28;20131;-78
2023/09/18 02:31:47;;;;;;;4.05;2.47;;;;;;;-141.50;100.00;63355.56;5035300;28;20029;-77
2023/09/18 02:34:14;;;;;;;4.55;2.30;;;;;;;-141.50;100.00;63355.56;5028289;28;20133;-78
2023/09/18 02:36:41;;;;;;;4.57;2.38;;;;;;;-141.50;100.00;63355.56;5006999;28;20428;-77
2023/09/18 02:39:10;;;;;;;3.88;2.47;;;;;;;-141.50;100.00;63355.56;5025183;28;20055;-78
2023/09/18 02:41:36;;;;;;;3.53;2.15;;;;;;;-141.50;100.00;63355.56;5025582;28;20045;-78
2023/09/18 02:44:04;;;;;;;4.75;2.60;;;;;;;-141.50;100.00;63355.56;5024449;28;20065;-78
2023/09/18 02:46:31;;;;;;;4.60;2.85;;;;;;;-141.50;100.00;63355.56;5026402;28;20049;-78
2023/09/18 02:48:58;;;;;;;4.25;2.63;;;;;;;-141.50;100.00;63355.56;5013363;28;20049;-78
2023/09/18 02:51:25;;;;;;;5.70;2.30;;;;;;;-141.50;100.00;63355.56;5018586;28;20042;-78
2023/09/18 02:53:51;;;;;;;4.45;2.40;;;;;;;-141.50;100.00;63355.56;5011531;28;20046;-78
2023/09/18 02:56:19;;;;;;;4.80;2.67;;;;;;;-141.50;100.00;63355.56;5014725;28;20049;-78
2023/09/18 02:58:45;;;;;;;3.17;2.15;;;;;;;-141.50;100.00;63355.56;5031023;28;20416;-77
2023/09/18 03:01:12;;;;;;;3.72;2.47;;;;;;;-141.50;100.00;63355.56;4997545;28;20054;-78
2023/09/18 03:03:41;;;;;;;3.78;2.30;;;;;;;-141.50;100.00;63355.56;5025167;28;20046;-78
2023/09/18 03:06:09;;;;;;;3.95;2.45;;;;;;;-141.50;100.00;63355.56;5011943;28;20065;-78
2023/09/18 03:08:36;;;;;;;3.42;2.20;;;;;;;-141.50;100.00;63355.56;5046006;28;20045;-78
2023/09/18 03:11:14;;;;;;;2.92;2.10;;;;;;;-141.50;100.00;63355.56;5027858;28;20049;-77
2023/09/18 03:13:49;;;;;;;4.68;2.55;;;;;;;-141.50;100.00;63355.56;5008211;28;20075;-77
2023/09/18 03:16:18;;;;;;;4.13;2.42;;;;;;;-141.50;100.00;63355.56;5035511;28;20559;-78
2023/09/18 03:18:46;;;;;;;3.22;2.00;;;;;;;-141.50;100.00;63355.56;5029214;28;20499;-78
2023/09/18 03:21:13;;;;;;;4.13;2.40;;;;;;;-141.50;100.00;63355.56;5023409;28;20053;-78
2023/09/18 03:23:40;;;;;;;3.38;2.15;;;;;;;-141.50;100.00;63355.56;5011395;28;20045;-78
2023/09/18 03:26:07;;;;;;;4.05;2.40;;;;;;;-141.50;100.00;63355.56;5011961;28;20483;-78
2023/09/18 03:28:34;;;;;;;3.90;2.28;;;;;;;-141.50;100.00;63355.56;5005567;28;20049;-78
2023/09/18 03:31:01;;;;;;;3.75;2.20;;;;;;;-141.50;100.00;63355.56;5026101;28;20482;-78
2023/09/18 03:33:28;;;;;;;4.93;2.40;;;;;;;-141.50;100.00;63355.56;5029629;28;20048;-78
2023/09/18 03:35:57;;;;;;;3.90;2.22;;;;;;;-141.50;100.00;63355.56;5028824;28;20108;-78
2023/09/18 03:38:26;;;;;;;4.32;2.40;;;;;;;-141.50;100.00;63355.56;5037114;28;20522;-78
2023/09/18 03:40:54;;;;;;;4.53;2.50;;;;;;;-141.50;100.00;63355.56;5027921;28;20107;-78
2023/09/18 03:43:21;;;;;;;4.65;2.50;;;;;;;-141.50;100.00;63355.56;5011670;28;20046;-78
2023/09/18 03:45:48;;;;;;;3.95;2.20;;;;;;;-141.50;100.00;63355.56;5026913;28;20045;-77
2023/09/18 03:48:16;;;;;;;5.50;2.67;;;;;;;-141.50;100.00;63355.56;5011983;28;20041;-78
2023/09/18 03:50:43;;;;;;;4.13;2.50;;;;;;;-141.50;100.00;63355.56;5025093;28;20060;-78
2023/09/18 03:53:10;;;;;;;4.35;2.45;;;;;;;-141.50;100.00;63355.56;5012022;28;20212;-79
2023/09/18 03:55:37;;;;;;;2.97;2.10;;;;;;;-141.50;100.00;63355.56;5007086;28;20042;-78
2023/09/18 03:58:05;;;;;;;6.32;2.25;;;;;;;-141.50;100.00;63355.56;5025546;28;20079;-77
2023/09/18 04:00:32;;;;;;;5.60;2.50;;;;;;;-141.50;100.00;63355.56;5026661;28;20112;-77
2023/09/18 04:02:59;;;;;;;3.92;2.50;;;;;;;-141.50;100.00;63355.56;5022817;28;20065;-79
2023/09/18 04:05:26;;;;;;;4.15;2.33;;;;;;;-141.50;100.00;63355.56;5021961;28;20050;-78
2023/09/18 04:07:55;;;;;;;4.20;2.45;;;;;;;-141.50;100.00;63355.56;5021286;28;21298;-78
2023/09/18 04:10:22;;;;;;;3.90;2.30;;;;;;;-141.50;100.00;63355.56;5007922;28;20041;-79
2023/09/18 04:12:51;;;;;;;3.60;2.40;;;;;;;-141.50;100.00;63355.56;5014120;28;20053;-78
2023/09/18 04:15:19;;;;;;;3.10;1.90;;;;;;;-141.50;100.00;63355.56;5006444;28;20053;-78
2023/09/18 04:17:46;;;;;;;4.20;2.25;;;;;;;-141.50;100.00;63355.56;5023113;28;20157;-78
2023/09/18 04:20:14;;;;;;;4.88;3.10;;;;;;;-141.50;100.00;63355.56;5000998;28;20076;-78
2023/09/18 04:22:49;;;;;;;5.55;2.80;;;;;;;-141.50;100.00;63355.56;5016698;28;20068;-78
2023/09/18 04:25:18;;;;;;;4.03;2.50;;;;;;;-141.50;100.00;63355.56;5018349;28;20046;-78
2023/09/18 04:27:49;;;;;;;4.53;2.67;;;;;;;-141.50;100.00;63355.56;5024935;28;20125;-79
2023/09/18 04:30:19;;;;;;;8.35;3.00;;;;;;;-141.50;100.00;63355.56;5047260;28;20091;-78
2023/09/18 04:32:46;;;;;;;4.63;2.75;;;;;;;-141.50;100.00;63355.56;5027192;28;20104;-78
2023/09/18 04:35:14;;;;;;;4.25;2.35;;;;;;;-141.50;100.00;63355.56;5023253;28;20580;-79
2023/09/18 04:37:41;;;;;;;5.78;2.92;;;;;;;-141.50;100.00;63355.56;5027620;28;20096;-79
2023/09/18 04:40:09;;;;;;;3.40;2.50;;;;;;;-141.50;100.00;63355.56;5028968;28;20535;-79
2023/09/18 04:42:39;;;;;;;5.20;2.97;;;;;;;-141.50;100.00;63355.56;5006802;28;20062;-79
2023/09/18 04:45:07;;;;;;;4.03;2.47;;;;;;;-141.50;100.00;63355.56;5025197;28;20111;-78
2023/09/18 04:47:35;;;;;;;4.25;3.00;;;;;;;-141.50;100.00;63355.56;5023151;28;20072;-78
2023/09/18 04:50:05;;;;;;;6.53;3.22;;;;;;;-141.50;100.00;63355.56;5024293;28;20049;-78
2023/09/18 04:52:36;;;;;;;5.30;3.33;;;;;;;-141.50;100.00;63355.56;5033161;28;20203;-78
2023/09/18 04:55:06;;;;;;;5.00;3.10;;;;;;;-141.50;100.00;63355.56;5029689;28;20093;-78
2023/09/18 04:57:33;;;;;;;8.00;3.00;;;;;;;-141.50;100.00;63355.56;5026856;28;20136;-78
2023/09/18 05:00:01;;;;;;;4.90;2.85;;;;;;;-141.50;100.00;63355.56;5001678;28;20065;-78
2023/09/18 05:02:43;;;;;;;5.32;3.08;;;;;;;-141.50;100.00;63355.56;5040432;28;20049;-79
2023/09/18 05:05:11;;;;;;;5.95;3.20;;;;;;;-141.50;100.00;63355.56;5024684;28;20396;-78
2023/09/18 05:07:42;;;;;;;4.88;2.70;;;;;;;-141.50;100.00;63355.56;5025059;28;20073;-78
2023/09/18 05:10:09;;;;;;;5.57;2.53;;;;;;;-141.50;100.00;63355.56;5008062;28;20495;-78
2023/09/18 05:12:40;;;;;;;5.15;2.80;;;;;;;-141.50;100.00;63355.56;5030892;28;20037;-77
2023/09/18 05:15:09;;;;;;;6.72;2.95;;;;;;;-141.50;100.00;63355.56;5030531;28;20069;-77
2023/09/18 05:17:43;;;;;;;4.78;2.90;;;;;;;-141.50;100.00;63355.56;5027115;28;20111;-77
2023/09/18 05:20:13;;;;;;;4.80;2.85;;;;;;;-141.50;100.00;63355.56;5029655;28;20056;-78
2023/09/18 05:22:42;;;;;;;5.95;2.72;;;;;;;-141.50;100.00;63355.56;5032738;28;20091;-78
2023/09/18 05:25:14;;;;;;;4.35;2.88;;;;;;;-141.50;100.00;63355.56;5032709;28;20067;-77
2023/09/18 05:27:44;;;;;;;4.75;2.75;;;;;;;-141.50;100.00;63355.56;5032049;28;20057;-77
2023/09/18 05:30:16;;;;;;;5.95;3.13;;;;;;;-141.50;100.00;63355.56;5031013;28;20041;-78
2023/09/18 05:32:44;;;;;;;4.22;2.60;;;;;;;-141.50;100.00;63355.56;5030586;28;20129;-78
2023/09/18 05:35:12;;;;;;;4.88;2.95;;;;;;;-141.50;100.00;63355.56;5045421;28;20128;-78
2023/09/18 05:37:41;;;;;;;6.97;2.88;;;;;;;-141.50;100.00;63355.56;5029669;28;20072;-78
2023/09/18 05:40:09;;;;;;;4.28;2.78;;;;;;;-141.50;100.00;63355.56;5029610;28;20049;-78
2023/09/18 05:42:38;;;;;;;5.38;2.75;;;;;;;-141.50;100.00;63355.56;5035350;28;20045;-77
2023/09/18 05:45:05;;;;;;;5.15;2.92;;;;;;;-141.50;100.00;63355.56;5048971;28;20383;-77
2023/09/18 05:47:33;;;;;;;4.70;2.85;;;;;;;-141.50;100.00;63355.56;5000050;28;20100;-76
2023/09/18 05:50:00;;;;;;;4.50;2.70;;;;;;;-141.50;100.00;63355.56;5024154;28;21535;-77
2023/09/18 05:52:27;;;;;;;5.75;2.70;;;;;;;-141.50;100.00;63355.56;5025355;28;20056;-76
2023/09/18 05:54:54;;;;;;;4.45;2.40;;;;;;;-141.50;100.00;63355.56;5025575;28;20064;-78
2023/09/18 05:57:20;;;;;;;4.90;3.00;;;;;;;-141.50;100.00;63355.56;5017611;28;20041;-79
2023/09/18 05:59:47;;;;;;;4.65;2.80;;;;;;;-141.50;100.00;63355.56;5022678;28;20041;-79
2023/09/18 06:02:16;;;;;;;4.68;2.92;;;;;;;-141.50;100.00;63355.56;5030562;28;20103;-79
2023/09/18 06:04:43;;;;;;;4.40;2.90;;;;;;;-141.50;100.00;63355.56;5029700;28;20520;-79
2023/09/18 06:07:10;;;;;;;4.95;2.75;;;;;;;-141.50;100.00;63355.56;5017540;28;20050;-78
2023/09/18 06:09:36;;;;;;;3.90;2.60;;;;;;;-141.50;100.00;63355.56;5029276;28;20061;-79
2023/09/18 06:12:04;;;;;;;5.30;3.03;;;;;;;-141.50;100.00;63355.56;5029810;28;20133;-79
2023/09/18 06:14:34;;;;;;;4.75;2.60;;;;;;;-141.50;100.00;63355.56;5048119;28;20037;-78
2023/09/18 06:17:01;;;;;;;4.43;2.67;;;;;;;-141.50;100.00;63355.56;5047935;28;20064;-77
2023/09/18 06:19:28;;;;;;;5.05;2.70;;;;;;;-141.50;100.00;63355.56;5033832;28;20081;-78
2023/09/18 06:21:55;;;;;;;4.20;2.58;;;;;;;-141.50;100.00;63355.56;5027944;28;20072;-77
2023/09/18 06:24:21;;;;;;;4.55;2.28;;;;;;;-141.50;100.00;63355.56;5046033;28;20045;-77
2023/09/18 06:26:48;;;;;;;4.68;2.35;;;;;;;-141.50;100.00;63355.56;5044182;28;20045;-77
2023/09/18 06:29:15;;;;;;;3.47;2.20;;;;;;;-141.50;100.00;63355.56;5026829;28;20054;-77
2023/09/18 06:31:41;;;;;;;4.65;2.25;;;;;;;-141.50;100.00;63355.56;5012491;28;20060;-78
2023/09/18 06:34:08;;;;;;;3.40;2.45;;;;;;;-141.50;100.00;63355.56;5025469;28;20041;-78
2023/09/18 06:36:35;;;;;;;4.72;2.70;;;;;;;-141.50;100.00;63355.56;5015929;28;20439;-78
2023/09/18 06:39:02;;;;;;;3.95;2.50;;;;;;;-141.50;100.00;63355.56;5024061;28;20049;-78
2023/09/18 06:41:29;;;;;;;5.35;2.28;;;;;;;-141.50;100.00;63355.56;5021723;28;20046;-78
2023/09/18 06:43:57;;;;;;;4.20;2.13;;;;;;;-141.50;100.00;63355.56;5026345;28;20072;-78
2023/09/18 06:46:24;;;;;;;5.22;1.60;;;;;;;-141.50;100.00;63355.56;5026312;28;20064;-78
2023/09/18 06:48:51;;;;;;;3.25;1.83;;;;;;;-141.50;100.00;63355.56;5024709;28;20041;-78
2023/09/18 06:51:18;;;;;;;3.38;1.98;;;;;;;-141.50;100.00;63355.56;5017970;28;20405;-78
2023/09/18 06:53:57;;;;;;;2.92;1.90;;;;;;;-141.50;100.00;63355.56;5030293;28;20057;-78
2023/09/18 06:56:24;;;;;;;4.05;2.20;;;;;;;-141.50;100.00;63355.56;5029602;28;20038;-78
2023/09/18 06:58:51;;;;;;;3.60;2.03;;;;;;;-141.50;100.00;63355.56;5012230;28;20129;-78
2023/09/18 07:01:19;;;;;;;3.28;2.00;;;;;;;-141.50;100.00;63355.56;5043054;28;20052;-78
2023/09/18 07:03:50;;;;;;;3.28;1.90;;;;;;;-141.50;100.00;63355.56;5025381;28;20045;-78
2023/09/18 07:06:19;;;;;;;3.40;2.03;;;;;;;-141.50;100.00;63355.56;5042138;28;20462;-78
2023/09/18 07:08:49;;;;;;;4.20;1.80;;;;;;;-141.50;100.00;63355.56;5024682;28;20344;-78
2023/09/18 07:11:17;;;;;;;3.75;2.17;;;;;;;-141.50;100.00;63355.56;5035417;28;20299;-78
2023/09/18 07:13:44;;;;;;;2.35;1.77;;;;;;;-141.50;100.00;63355.56;5019037;28;20042;-79
2023/09/18 07:16:11;;;;;;;2.55;1.67;;;;;;;-141.50;100.00;63355.56;5031255;28;20513;-78
2023/09/18 07:18:38;;;;;;;4.15;1.90;;;;;;;-141.50;100.00;63355.56;5046132;28;20054;-78
2023/09/18 07:21:05;;;;;;;2.90;2.00;;;;;;;-141.50;100.00;63355.56;5021031;28;20065;-79
2023/09/18 07:23:32;;;;;;;3.20;2.03;;;;;;;-141.50;100.00;63355.56;5027114;28;20044;-77
2023/09/18 07:25:58;;;;;;;4.57;2.10;;;;;;;-141.50;100.00;63355.56;5020236;28;20053;-78
2023/09/18 07:28:26;;;;;;;3.53;1.65;;;;;;;-141.50;100.00;63355.56;5019077;28;20049;-78
2023/09/18 07:30:53;;;;;;;3.50;2.08;;;;;;;-141.50;100.00;63355.56;5026203;28;20076;-79
2023/09/18 07:33:20;;;;;;;2.22;1.60;;;;;;;-141.50;100.00;63355.56;5015988;28;20045;-79
2023/09/18 07:35:47;;;;;;;2.70;1.88;;;;;;;-141.50;100.00;63355.56;5013624;28;20041;-79
2023/09/18 07:38:15;;;;;;;2.72;1.83;;;;;;;-141.50;100.00;63355.56;5034032;28;20508;-79
2023/09/18 07:40:42;;;;;;;3.47;1.98;;;;;;;-141.50;100.00;63355.56;5026046;28;20049;-79
2023/09/18 07:43:08;;;;;;;1.90;1.50;;;;;;;-141.50;100.00;63355.56;5034300;28;20041;-78
2023/09/18 07:45:39;;;;;;;2.67;1.75;;;;;;;-141.50;100.00;63355.56;5033480;28;20060;-79
2023/09/18 07:48:07;;;;;;;3.00;1.60;;;;;;;-141.50;100.00;63355.56;5032557;28;20053;-78
2023/09/18 07:50:35;;;;;;;2.55;1.65;;;;;;;-141.50;100.00;63355.56;5032889;28;20045;-78
2023/09/18 07:53:02;;;;;;;2.80;1.73;;;;;;;-141.50;100.00;63355.56;5019079;28;20046;-78
2023/09/18 07:55:29;;;;;;;4.13;1.83;;;;;;;-141.50;100.00;63355.56;5032531;28;20109;-79
2023/09/18 07:57:58;;;;;;;2.72;1.70;;;;;;;-141.50;100.00;63355.56;5031863;28;20041;-78
2023/09/18 08:00:25;;;;;;;3.85;1.88;;;;;;;-141.50;100.00;63355.56;5016980;28;20562;-79
2023/09/18 08:02:58;;;;;;;2.65;1.75;;;;;;;-141.50;100.00;63355.56;5029545;28;20056;-78
2023/09/18 08:05:27;;;;;;;2.92;1.70;;;;;;;-141.50;100.00;63355.56;5030174;28;20057;-78
2023/09/18 08:07:59;;;;;;;3.22;1.73;;;;;;;-141.50;100.00;63355.56;5017336;28;20512;-78
2023/09/18 08:10:26;;;;;;;4.00;1.65;;;;;;;-141.50;100.00;63355.56;5032684;28;20037;-78
2023/09/18 08:12:53;;;;;;;2.65;1.80;;;;;;;-141.50;100.00;63355.56;5031134;28;20068;-78
2023/09/18 08:15:20;;;;;;;2.33;1.55;;;;;;;-141.50;100.00;63355.56;5029409;28;20494;-79
2023/09/18 08:17:49;;;;;;;4.20;1.58;;;;;;;-141.50;100.00;63355.56;5026708;28;20060;-78
2023/09/18 08:20:16;;;;;;;3.30;1.40;;;;;;;-141.50;100.00;63355.56;5023073;28;20132;-78
2023/09/18 08:22:44;;;;;;;4.90;1.63;;;;;;;-141.50;100.00;63355.56;5026621;28;20096;-78
2023/09/18 08:25:12;;;;;;;2.88;1.60;;;;;;;-141.50;100.00;63355.56;5023112;28;20064;-78
2023/09/18 08:27:44;;;;;;;2.10;1.70;;;;;;;-141.50;100.00;63355.56;5028493;28;20057;-79
2023/09/18 08:30:12;;;;;;;2.92;1.42;;;;;;;-141.50;100.00;63355.56;5019013;28;20049;-78
2023/09/18 08:32:43;;;;;;;2.80;1.60;;;;;;;-141.50;100.00;63355.56;5025033;28;20050;-78
2023/09/18 08:35:10;;;;;;;1.90;1.50;;;;;;;-141.50;100.00;63355.56;5022179;28;20140;-78
2023/09/18 08:37:37;;;;;;;2.97;1.30;;;;;;;-141.50;100.00;63355.56;5026692;28;20052;-78
2023/09/18 08:40:09;;;;;;;1.75;1.30;;;;;;;-141.50;100.00;63355.56;5019448;28;20130;-78
2023/09/18 08:42:45;;;;;;;3.20;1.40;;;;;;;-141.50;100.00;63355.56;5024744;28;20049;-79
2023/09/18 08:45:21;;;;;;;3.90;1.30;;;;;;;-141.50;100.00;63355.56;5024256;28;20044;-78
2023/09/18 08:47:51;;;;;;;3.22;1.40;;;;;;;-141.50;100.00;63355.56;5052767;28;20150;-78
2023/09/18 08:50:19;;;;;;;1.77;1.38;;;;;;;-141.50;100.00;63355.56;5032675;28;20049;-80
2023/09/18 08:52:47;;;;;;;2.10;1.27;;;;;;;-141.50;100.00;63355.56;5003261;28;20053;-77
2023/09/18 08:55:14;;;;;;;2.28;1.17;;;;;;;-141.50;100.00;63355.56;5023586;28;20052;-78
2023/09/18 08:57:42;;;;;;;1.58;1.20;;;;;;;-141.50;100.00;63355.56;5008274;28;20057;-78
2023/09/18 09:00:11;;;;;;;1.73;1.15;;;;;;;-141.50;100.00;63355.56;5043009;28;20064;-78
2023/09/18 09:02:38;;;;;;;1.60;1.15;;;;;;;-141.50;100.00;63355.56;5028979;28;20470;-78
2023/09/18 09:05:06;;;;;;;1.70;1.27;;;;;;;-141.50;100.00;63355.56;5027221;28;20730;-79
2023/09/18 09:07:33;;;;;;;3.22;1.30;;;;;;;-141.50;100.00;63355.56;5028438;28;20050;-77
2023/09/18 09:09:59;;;;;;;2.53;1.20;;;;;;;-141.50;100.00;63355.56;5014248;28;20046;-78
2023/09/18 09:12:48;;;;;;;2.30;1.77;;;;;;;-141.50;100.00;63355.56;5027696;28;20704;-78
2023/09/18 09:15:19;;;;;;;3.03;1.20;;;;;;;-141.50;100.00;63355.56;5020263;28;20107;-78
2023/09/18 09:17:46;;;;;;;1.80;1.33;;;;;;;-141.50;100.00;63355.56;5025781;28;20072;-78
2023/09/18 09:20:15;;;;;;;2.33;1.48;;;;;;;-141.50;100.00;63355.56;5025799;28;20046;-78
2023/09/18 09:22:43;;;;;;;2.00;1.25;;;;;;;-141.50;100.00;63355.56;5019444;28;20041;-78
2023/09/18 09:25:23;;;;;;;1.85;1.42;;;;;;;-141.50;100.00;63355.56;5043054;28;20053;-78
2023/09/18 09:27:50;;;;;;;2.70;1.38;;;;;;;-141.50;100.00;63355.56;5014159;28;20046;-78
2023/09/18 09:30:25;;;;;;;3.55;1.20;;;;;;;-141.50;100.00;63355.56;5024173;28;20053;-78
2023/09/18 09:32:54;;;;;;;2.45;1.33;;;;;;;-141.50;100.00;63355.56;5042278;28;20080;-78
2023/09/18 09:35:28;;;;;;;1.70;1.10;;;;;;;-141.50;100.00;63355.56;5011855;28;20049;-78
2023/09/18 09:38:08;;;;;;;1.35;1.10;;;;;;;-141.50;100.00;63355.56;5030440;28;20075;-77
2023/09/18 09:40:40;;;;;;;1.70;1.17;;;;;;;-141.50;100.00;63355.56;5046643;28;20065;-77
2023/09/18 09:43:10;;;;;;;3.70;1.50;;;;;;;-141.50;100.00;63355.56;5047759;28;20439;-78
2023/09/18 09:45:38;;;;;;;1.90;1.30;;;;;;;-141.50;100.00;63355.56;5030542;28;20045;-77
2023/09/18 09:48:06;;;;;;;2.90;1.45;;;;;;;-141.50;100.00;63355.56;5043167;28;20064;-78
2023/09/18 09:50:48;;;;;;;3.10;1.40;;;;;;;-141.50;100.00;63355.56;5027636;28;20037;-78
2023/09/18 09:53:16;;;;;;;2.70;1.33;;;;;;;-141.50;100.00;63355.56;5020556;28;21220;-78
2023/09/18 09:55:43;;;;;;;1.88;1.17;;;;;;;-141.50;100.00;63355.56;5023974;28;20042;-78
2023/09/18 09:58:10;;;;;;;3.03;1.25;;;;;;;-141.50;100.00;63355.56;5028104;28;20041;-78
2023/09/18 10:00:49;;;;;;;3.25;1.48;;;;;;;-141.50;100.00;63355.56;5026129;28;20052;-78
2023/09/18 10:03:19;;;;;;;2.60;1.42;;;;;;;-141.50;100.00;63355.56;5011520;28;20077;-78
2023/09/18 10:05:50;;;;;;;1.80;1.30;;;;;;;-141.50;100.00;63355.56;5026566;28;20095;-77
2023/09/18 10:08:21;;;;;;;1.83;1.33;;;;;;;-141.50;100.00;63355.56;5043117;28;20119;-77
2023/09/18 10:10:50;;;;;;;2.08;1.50;;;;;;;-141.50;100.00;63355.56;5025822;28;20038;-78
2023/09/18 10:13:36;;;;;;;4.22;1.65;;;;;;;-141.50;100.00;63355.56;5027951;28;20056;-78
2023/09/18 10:16:05;;;;;;;1.83;1.33;;;;;;;-141.50;100.00;63355.56;5025226;28;20264;-78
2023/09/18 10:18:52;;;;;;;2.22;1.70;;;;;;;-141.50;100.00;63355.56;5029440;28;20048;-78
2023/09/18 10:21:38;;;;;;;3.17;2.00;;;;;;;-141.50;100.00;63355.56;5042557;28;20040;-76
2023/09/18 10:24:19;;;;;;;1.63;1.40;;;;;;;-141.50;100.00;63355.56;5047683;28;20083;-77
2023/09/18 10:26:58;;;;;;;2.22;1.52;;;;;;;-141.50;100.00;63355.56;5041245;28;20210;-77
2023/09/18 10:29:25;;;;;;;2.95;1.33;;;;;;;-141.50;100.00;63355.56;5026298;28;20065;-77
2023/09/18 10:31:53;;;;;;;1.50;1.30;;;;;;;-141.50;100.00;63355.56;5028915;28;20040;-79
2023/09/18 10:34:22;;;;;;;2.72;1.55;;;;;;;-141.50;100.00;63355.56;5026034;28;20125;-78
2023/09/18 10:36:51;;;;;;;2.88;1.55;;;;;;;-141.50;100.00;63355.56;5041549;28;20037;-77
2023/09/18 10:39:23;;;;;;;3.17;1.67;;;;;;;-141.50;100.00;63355.56;5027329;28;20060;-78
2023/09/18 10:41:55;;;;;;;2.45;1.45;;;;;;;-141.50;100.00;63355.56;5038038;28;20048;-78
2023/09/18 10:44:23;;;;;;;1.92;1.50;;;;;;;-141.50;100.00;63355.56;5039557;28;20061;-78
2023/09/18 10:46:52;;;;;;;4.75;1.38;;;;;;;-141.50;100.00;63355.56;5021707;28;20107;-78
2023/09/18 10:49:20;;;;;;;2.60;1.40;;;;;;;-141.50;100.00;63355.56;5023028;28;20041;-78
2023/09/18 10:51:48;;;;;;;2.47;1.20;;;;;;;-141.50;100.00;63355.56;5015023;28;20447;-79
2023/09/18 10:54:16;;;;;;;1.77;1.30;;;;;;;-141.50;100.00;63355.56;4998423;28;20716;-78
2023/09/18 10:56:43;;;;;;;2.08;1.55;;;;;;;-141.50;100.00;63355.56;5022845;28;20609;-77
2023/09/18 10:59:10;;;;;;;6.07;2.00;;;;;;;-141.50;100.00;63355.56;5024173;28;20590;-77
2023/09/18 11:01:37;;;;;;;2.83;1.25;;;;;;;-141.50;100.00;63355.56;5019092;28;20042;-77
2023/09/18 11:04:10;;;;;;;5.60;1.58;;;;;;;-141.50;100.00;63355.56;5023719;28;20049;-78
2023/09/18 11:06:55;;;;;;;5.43;1.67;;;;;;;-141.50;100.00;63355.56;5032037;28;21651;-77
2023/09/18 11:09:28;;;;;;;4.57;1.60;;;;;;;-141.50;100.00;63355.56;5031058;28;20045;-78
2023/09/18 11:11:59;;;;;;;8.10;1.50;;;;;;;-141.50;100.00;63355.56;5029488;28;20140;-77
2023/09/18 11:14:54;;;;;;;2.50;1.30;;;;;;;-141.50;100.00;63355.56;5051632;28;20091;-78
2023/09/18 11:17:36;;;;;;;5.22;1.90;;;;;;;-141.50;100.00;63355.56;5032399;28;20054;-78
2023/09/18 11:20:22;;;;;;;7.70;1.60;;;;;;;-141.50;100.00;63355.56;5031689;28;20077;-78